Time;durP1;ratioP1;P1;durP2;ratioP2;P2;SDS_P1;SDS_P2;PMS_P1;PMS_P2;Temp;Humidity;BMP_temperature;BMP_pressure;BME280_temperature;BME280_humidity;BME280_pressure;Samples;Min_cycle;Max_cycle;Signal;HPM_P1;HPM_P2
2022/03/06 00:00:09;;;;;;;149.48;80.13;;;;;;;8.12;81.10;101512.41;5032679;28;20045;-65
2022/03/06 00:02:40;;;;;;;146.15;80.18;;;;;;;7.82;81.12;101519.59;5040799;28;20045;-63
2022/03/06 00:05:08;;;;;;;152.45;80.13;;;;;;;7.84;80.04;101528.38;5039334;28;20058;-63
2022/03/06 00:07:36;;;;;;;147.77;79.57;;;;;;;7.60;81.96;101527.25;5041264;28;20063;-64
2022/03/06 00:10:04;;;;;;;145.00;79.07;;;;;;;7.53;82.52;101523.97;5038482;28;20053;-65
2022/03/06 00:12:37;;;;;;;139.98;77.45;;;;;;;7.49;82.33;101525.63;5031676;28;20404;-66
2022/03/06 00:15:06;;;;;;;147.32;79.95;;;;;;;7.59;81.50;101522.88;5049692;28;20045;-66
2022/03/06 00:17:33;;;;;;;142.45;77.45;;;;;;;7.57;81.52;101525.06;5031757;28;20053;-64
2022/03/06 00:20:02;;;;;;;139.30;75.85;;;;;;;7.47;81.01;101532.47;5037640;28;20045;-63
2022/03/06 00:22:31;;;;;;;143.35;75.97;;;;;;;7.42;81.09;101530.56;5043212;28;20052;-64
2022/03/06 00:24:59;;;;;;;139.63;74.45;;;;;;;7.43;81.16;101529.44;5037649;28;20053;-64
2022/03/06 00:27:26;;;;;;;141.45;78.60;;;;;;;7.55;80.48;101534.69;5038461;28;20045;-62
2022/03/06 00:29:54;;;;;;;132.38;74.13;;;;;;;7.26;81.10;101530.78;5040857;28;20038;-62
2022/03/06 00:32:21;;;;;;;140.85;76.00;;;;;;;7.20;80.97;101531.91;5038370;28;20058;-63
2022/03/06 00:34:48;;;;;;;131.05;71.18;;;;;;;7.07;80.80;101527.75;5037071;28;20050;-63
2022/03/06 00:37:16;;;;;;;130.65;70.88;;;;;;;7.26;79.80;101539.00;5034714;28;20088;-62
2022/03/06 00:39:43;;;;;;;125.00;69.82;;;;;;;7.03;79.82;101543.06;5039783;28;20049;-63
2022/03/06 00:42:11;;;;;;;132.35;68.10;;;;;;;7.15;79.17;101537.38;5036876;28;20045;-63
2022/03/06 00:44:38;;;;;;;131.82;69.03;;;;;;;7.06;79.08;101530.78;5029875;28;20049;-64
2022/03/06 00:47:06;;;;;;;120.43;68.25;;;;;;;7.40;77.75;101531.91;5037274;28;20049;-64
2022/03/06 00:49:34;;;;;;;119.72;69.00;;;;;;;7.28;77.20;101534.09;5030231;28;20049;-64
2022/03/06 00:52:02;;;;;;;127.38;66.82;;;;;;;7.47;77.18;101525.06;5035895;28;20053;-63
2022/03/06 00:54:30;;;;;;;117.90;65.80;;;;;;;7.65;76.13;101519.03;5033964;28;20057;-63
2022/03/06 00:56:58;;;;;;;113.18;62.67;;;;;;;7.16;75.82;101531.63;5068455;28;20048;-64
2022/03/06 00:59:25;;;;;;;121.70;64.15;;;;;;;7.46;75.62;101528.09;5030045;28;20053;-64
2022/03/06 01:01:52;;;;;;;113.93;64.18;;;;;;;7.56;74.55;101526.19;5042419;28;20049;-63
2022/03/06 01:04:20;;;;;;;115.97;61.72;;;;;;;7.24;74.07;101539.28;5044799;28;20057;-63
2022/03/06 01:06:47;;;;;;;111.35;61.70;;;;;;;6.91;75.00;101544.41;5068955;28;20060;-64
2022/03/06 01:09:14;;;;;;;100.43;58.30;;;;;;;6.89;74.28;101538.41;5041450;28;20554;-64
2022/03/06 01:11:42;;;;;;;103.07;57.20;;;;;;;7.17;73.33;101546.94;5031418;28;20052;-63
2022/03/06 01:14:09;;;;;;;107.25;58.42;;;;;;;7.15;72.56;101538.16;5037713;28;20077;-63
2022/03/06 01:16:36;;;;;;;110.85;58.72;;;;;;;7.21;71.99;101539.00;5026972;28;20503;-63
2022/03/06 01:19:04;;;;;;;103.18;57.08;;;;;;;6.91;72.72;101539.75;5022060;28;20052;-63
2022/03/06 01:21:31;;;;;;;110.07;59.88;;;;;;;6.88;72.96;101542.22;5030899;28;20057;-62
2022/03/06 01:23:58;;;;;;;107.20;58.83;;;;;;;6.92;73.09;101546.91;5033331;28;20057;-63
2022/03/06 01:26:26;;;;;;;108.22;60.42;;;;;;;6.97;73.00;101543.34;5034999;28;20053;-64
2022/03/06 01:28:53;;;;;;;117.78;60.63;;;;;;;6.94;72.77;101541.94;5036567;28;20053;-64
2022/03/06 01:31:21;;;;;;;106.10;58.35;;;;;;;7.24;72.05;101536.56;5041175;28;20060;-64
2022/03/06 01:33:48;;;;;;;107.57;58.75;;;;;;;7.20;71.11;101529.16;5024752;28;20060;-65
2022/03/06 01:36:15;;;;;;;110.35;59.80;;;;;;;7.30;70.82;101540.97;5040558;28;20062;-64
2022/03/06 01:38:43;;;;;;;100.65;56.55;;;;;;;6.97;70.31;101532.38;5030162;28;20216;-63
2022/03/06 01:41:10;;;;;;;101.30;56.97;;;;;;;6.89;70.03;101524.72;5035705;28;20049;-63
2022/03/06 01:43:37;;;;;;;100.78;55.80;;;;;;;6.48;71.38;101529.19;5025239;28;20057;-63
2022/03/06 01:46:05;;;;;;;106.03;58.25;;;;;;;6.36;71.94;101545.81;5041381;28;20052;-62
2022/03/06 01:48:32;;;;;;;106.50;53.65;;;;;;;6.17;72.26;101543.78;5040420;28;20041;-64
2022/03/06 01:50:59;;;;;;;101.45;56.47;;;;;;;6.15;73.06;101546.81;5036013;28;20611;-62
2022/03/06 01:53:27;;;;;;;92.35;53.90;;;;;;;6.22;72.40;101547.41;5034025;28;20056;-64
2022/03/06 01:55:54;;;;;;;99.30;53.50;;;;;;;6.11;71.84;101547.56;5041576;28;20143;-63
2022/03/06 01:58:21;;;;;;;102.47;55.05;;;;;;;6.29;72.16;101542.50;5038734;28;20080;-62
2022/03/06 02:00:49;;;;;;;98.32;55.58;;;;;;;6.27;71.79;101547.41;5067654;28;20522;-64
2022/03/06 02:03:18;;;;;;;95.50;52.10;;;;;;;6.19;71.60;101547.09;5035178;28;20061;-62
2022/03/06 02:05:45;;;;;;;94.05;51.60;;;;;;;6.11;71.39;101544.84;5021456;28;20042;-62
2022/03/06 02:08:13;;;;;;;94.65;50.95;;;;;;;6.00;71.85;101540.41;5029072;28;20041;-63
2022/03/06 02:10:40;;;;;;;100.45;53.40;;;;;;;6.27;71.22;101549.31;5031157;28;20067;-63
2022/03/06 02:13:08;;;;;;;98.30;51.55;;;;;;;6.06;70.92;101545.63;5034201;28;20049;-64
2022/03/06 02:15:36;;;;;;;93.00;51.55;;;;;;;5.95;70.60;101545.81;5065200;28;20060;-63
2022/03/06 02:18:03;;;;;;;92.65;50.40;;;;;;;5.86;71.14;101537.28;5052535;28;20041;-62
2022/03/06 02:20:31;;;;;;;89.28;50.45;;;;;;;5.94;71.16;101542.28;5039326;28;20051;-62
2022/03/06 02:22:58;;;;;;;96.05;52.63;;;;;;;6.02;71.00;101539.03;5039144;28;20052;-63
2022/03/06 02:25:34;;;;;;;84.13;49.65;;;;;;;5.95;70.78;101549.38;5033719;28;20061;-62
2022/03/06 02:28:06;;;;;;;93.10;52.25;;;;;;;5.59;71.69;101540.06;5047134;28;20084;-63
2022/03/06 02:30:37;;;;;;;92.57;50.78;;;;;;;5.47;72.15;101535.84;5031669;28;20065;-62
2022/03/06 02:33:07;;;;;;;87.88;49.85;;;;;;;5.65;72.14;101551.84;5026228;28;20057;-63
2022/03/06 02:35:35;;;;;;;93.13;51.08;;;;;;;5.45;72.36;101546.22;5035464;28;20052;-63
2022/03/06 02:38:03;;;;;;;85.57;50.00;;;;;;;5.68;72.23;101534.94;5031274;28;20046;-62
2022/03/06 02:40:37;;;;;;;89.57;51.40;;;;;;;5.86;71.79;101531.00;5030435;28;20041;-62
2022/03/06 02:43:05;;;;;;;88.72;49.83;;;;;;;5.58;72.17;101530.19;5050168;28;20057;-62
2022/03/06 02:45:33;;;;;;;89.38;49.25;;;;;;;5.68;71.62;101532.22;5038785;28;20045;-62
2022/03/06 02:48:02;;;;;;;87.68;49.78;;;;;;;5.69;71.47;101520.19;5024680;28;20057;-63
2022/03/06 02:50:32;;;;;;;85.85;50.08;;;;;;;5.73;71.58;101533.06;5036531;28;20046;-63
2022/03/06 02:53:01;;;;;;;84.22;48.25;;;;;;;5.49;71.79;101528.22;5042404;28;20046;-63
2022/03/06 02:55:29;;;;;;;87.13;50.97;;;;;;;5.55;71.51;101538.94;5035055;28;20060;-63
2022/03/06 02:57:57;;;;;;;84.38;49.70;;;;;;;5.42;72.01;101552.19;5033764;28;20045;-63
2022/03/06 03:00:25;;;;;;;86.25;49.13;;;;;;;5.38;72.34;101551.06;5054465;28;20055;-63
2022/03/06 03:02:53;;;;;;;86.25;48.10;;;;;;;5.27;73.01;101543.84;5054655;28;20056;-65
2022/03/06 03:05:20;;;;;;;83.93;48.90;;;;;;;5.25;72.56;101554.19;5052981;28;20060;-62
2022/03/06 03:07:49;;;;;;;84.00;48.00;;;;;;;4.90;73.76;101542.91;5042004;28;20531;-63
2022/03/06 03:10:20;;;;;;;83.70;47.38;;;;;;;5.24;73.46;101547.94;5054286;28;20056;-63
2022/03/06 03:12:47;;;;;;;80.18;47.50;;;;;;;4.93;73.77;101547.84;5029588;28;20050;-62
2022/03/06 03:15:15;;;;;;;79.30;46.53;;;;;;;4.79;73.55;101555.63;5028140;28;20049;-63
2022/03/06 03:17:43;;;;;;;93.60;49.13;;;;;;;4.79;73.74;101541.97;5030599;28;20069;-62
2022/03/06 03:20:12;;;;;;;85.82;47.80;;;;;;;4.44;74.74;101547.81;5037780;28;20045;-62
2022/03/06 03:22:39;;;;;;;88.43;47.85;;;;;;;4.71;74.06;101545.13;5046969;28;20056;-62
2022/03/06 03:25:07;;;;;;;81.55;46.08;;;;;;;4.81;72.96;101545.28;5043948;28;20046;-63
2022/03/06 03:27:35;;;;;;;77.70;45.78;;;;;;;4.59;73.26;101548.00;5054833;28;20427;-62
2022/03/06 03:30:04;;;;;;;76.38;44.70;;;;;;;4.83;73.10;101543.09;5045587;28;20049;-62
2022/03/06 03:32:31;;;;;;;83.22;46.13;;;;;;;4.65;73.21;101546.16;5046805;28;20100;-63
2022/03/06 03:34:59;;;;;;;81.95;48.17;;;;;;;4.46;73.78;101544.84;5043349;28;20057;-62
2022/03/06 03:37:26;;;;;;;91.07;46.25;;;;;;;4.59;73.42;101556.19;5031756;28;20049;-62
2022/03/06 03:39:53;;;;;;;80.82;45.38;;;;;;;4.14;74.54;101552.00;5058379;28;20049;-62
2022/03/06 03:42:21;;;;;;;84.35;47.10;;;;;;;4.33;74.81;101554.19;5049464;28;20063;-62
2022/03/06 03:44:48;;;;;;;77.38;45.17;;;;;;;4.62;73.79;101560.28;5045463;28;20429;-63
2022/03/06 03:47:16;;;;;;;81.15;46.15;;;;;;;4.77;73.10;101565.97;5041914;28;20049;-64
2022/03/06 03:49:43;;;;;;;85.22;45.42;;;;;;;4.65;72.92;101567.16;5055477;28;20057;-63
2022/03/06 03:52:11;;;;;;;81.60;45.38;;;;;;;4.43;73.76;101567.97;5057866;28;20048;-62
2022/03/06 03:54:38;;;;;;;79.10;45.15;;;;;;;4.52;73.72;101569.19;5056638;28;20045;-62
2022/03/06 03:57:05;;;;;;;89.68;47.78;;;;;;;4.12;74.73;101575.97;5058196;28;20052;-62
2022/03/06 03:59:33;;;;;;;84.53;46.45;;;;;;;4.32;74.67;101581.72;5090238;28;20596;-62
2022/03/06 04:02:00;;;;;;;80.43;44.42;;;;;;;4.55;73.67;101576.84;5053586;28;20045;-63
2022/03/06 04:04:28;;;;;;;79.55;45.22;;;;;;;4.48;73.73;101578.94;5052224;28;20072;-63
2022/03/06 04:06:57;;;;;;;81.22;45.97;;;;;;;4.61;73.09;101577.75;5048244;28;20049;-63
2022/03/06 04:09:24;;;;;;;92.15;47.88;;;;;;;4.19;74.45;101585.63;5073294;28;20049;-62
2022/03/06 04:11:52;;;;;;;85.63;46.70;;;;;;;4.46;74.32;101585.75;5057611;28;20045;-62
2022/03/06 04:14:19;;;;;;;89.97;48.60;;;;;;;4.33;74.49;101586.94;5057595;28;20060;-62
2022/03/06 04:16:46;;;;;;;91.13;47.33;;;;;;;4.46;74.48;101577.56;5039513;28;20060;-63
2022/03/06 04:19:14;;;;;;;88.22;47.70;;;;;;;4.19;74.54;101584.78;5042895;28;20053;-62
2022/03/06 04:21:41;;;;;;;90.32;47.92;;;;;;;4.15;75.46;101600.81;5048365;28;20049;-62
2022/03/06 04:24:09;;;;;;;98.80;50.67;;;;;;;3.88;76.24;101597.13;5049239;28;20502;-62
2022/03/06 04:26:36;;;;;;;94.53;50.35;;;;;;;3.95;76.27;101597.78;5054905;28;20049;-62
2022/03/06 04:29:04;;;;;;;96.05;51.22;;;;;;;4.01;76.17;101598.72;5054738;28;20053;-62
2022/03/06 04:31:32;;;;;;;96.22;50.22;;;;;;;3.79;77.17;101598.63;5046450;28;20048;-63
2022/03/06 04:33:59;;;;;;;95.28;50.42;;;;;;;4.01;76.25;101604.97;5057480;28;20049;-63
2022/03/06 04:36:27;;;;;;;91.47;48.78;;;;;;;4.08;76.42;101604.81;5046491;28;20400;-61
2022/03/06 04:38:55;;;;;;;97.82;51.15;;;;;;;4.06;76.45;101601.50;5057009;28;20057;-61
2022/03/06 04:41:22;;;;;;;95.78;50.28;;;;;;;4.11;76.01;101610.59;5057314;28;20052;-62
2022/03/06 04:43:52;;;;;;;94.57;50.25;;;;;;;4.01;76.59;101607.69;5053346;28;20048;-62
2022/03/06 04:46:19;;;;;;;102.50;50.97;;;;;;;3.80;77.46;101608.44;5056937;28;20045;-62
2022/03/06 04:48:47;;;;;;;103.80;50.78;;;;;;;3.77;77.45;101613.53;5057322;28;20056;-63
2022/03/06 04:51:15;;;;;;;97.20;51.95;;;;;;;3.85;77.17;101616.72;5046344;28;20049;-62
2022/03/06 04:53:42;;;;;;;92.57;49.92;;;;;;;3.84;77.68;101615.06;5049559;28;20060;-62
2022/03/06 04:56:10;;;;;;;94.80;50.47;;;;;;;3.85;77.31;101616.72;5039039;28;20044;-63
2022/03/06 04:58:37;;;;;;;96.50;50.95;;;;;;;3.72;77.51;101617.03;5044607;28;20049;-63
2022/03/06 05:01:05;;;;;;;94.25;49.97;;;;;;;3.70;77.57;101611.00;5043492;28;20041;-64
2022/03/06 05:03:33;;;;;;;101.57;52.08;;;;;;;3.78;77.90;101613.31;5055796;28;20055;-63
2022/03/06 05:06:00;;;;;;;97.05;49.42;;;;;;;4.24;76.44;101609.41;5038282;28;20045;-63
2022/03/06 05:08:27;;;;;;;100.05;50.75;;;;;;;4.00;76.33;101614.22;5047368;28;20045;-62
2022/03/06 05:10:55;;;;;;;97.80;50.55;;;;;;;3.83;77.28;101607.97;5056681;28;20053;-62
2022/03/06 05:13:23;;;;;;;104.22;52.75;;;;;;;3.72;78.20;101613.47;5064759;28;20049;-64
2022/03/06 05:15:51;;;;;;;97.68;51.03;;;;;;;4.11;77.16;101618.78;5068240;28;20041;-62
2022/03/06 05:18:19;;;;;;;105.20;54.25;;;;;;;3.52;78.99;101618.56;5035677;28;20053;-62
2022/03/06 05:20:46;;;;;;;99.40;53.10;;;;;;;3.49;79.60;101616.34;5039552;28;20063;-62
2022/03/06 05:23:14;;;;;;;96.63;52.92;;;;;;;3.30;80.40;101627.44;5042799;28;20488;-62
2022/03/06 05:25:42;;;;;;;102.38;53.85;;;;;;;3.34;80.51;101625.88;5051731;28;20056;-62
2022/03/06 05:28:10;;;;;;;102.65;51.72;;;;;;;3.59;79.69;101630.13;5055038;28;20056;-62
2022/03/06 05:30:37;;;;;;;99.38;51.85;;;;;;;3.47;79.46;101632.09;5045906;28;20124;-62
2022/03/06 05:33:05;;;;;;;101.50;51.08;;;;;;;3.69;78.78;101633.88;5073107;28;20072;-62
2022/03/06 05:35:32;;;;;;;98.63;49.75;;;;;;;3.85;77.87;101630.34;5055977;28;20057;-62
2022/03/06 05:37:59;;;;;;;93.30;48.92;;;;;;;3.88;77.74;101635.28;5041554;28;20056;-62
2022/03/06 05:40:27;;;;;;;101.88;50.40;;;;;;;3.52;78.55;101641.19;5056943;28;20076;-62
2022/03/06 05:42:54;;;;;;;105.35;53.17;;;;;;;3.50;79.12;101637.06;5039050;28;20040;-62
2022/03/06 05:45:21;;;;;;;100.13;50.30;;;;;;;3.38;79.43;101637.13;5048586;28;20049;-62
2022/03/06 05:47:48;;;;;;;104.80;49.97;;;;;;;3.56;78.75;101638.81;5050156;28;20063;-62
2022/03/06 05:50:16;;;;;;;96.68;51.17;;;;;;;3.45;78.72;101645.97;5055385;28;20064;-62
2022/03/06 05:52:43;;;;;;;94.40;50.03;;;;;;;3.41;79.71;101642.06;5049746;28;20045;-63
2022/03/06 05:55:10;;;;;;;101.80;50.85;;;;;;;3.59;78.77;101639.16;5048720;28;20053;-63
2022/03/06 05:57:38;;;;;;;102.82;50.92;;;;;;;3.37;79.34;101641.72;5049842;28;20057;-62
2022/03/06 06:00:08;;;;;;;103.85;52.50;;;;;;;3.80;78.55;101645.78;5038189;28;20049;-63
2022/03/06 06:02:36;;;;;;;92.68;49.47;;;;;;;3.67;78.02;101652.34;5029181;28;20041;-63
2022/03/06 06:05:05;;;;;;;99.65;48.65;;;;;;;3.54;79.20;101652.66;5053653;28;20053;-63
2022/03/06 06:07:33;;;;;;;104.53;53.45;;;;;;;3.51;79.09;101653.16;5031264;28;20054;-62
2022/03/06 06:10:00;;;;;;;101.35;50.88;;;;;;;3.43;78.77;101654.34;5047172;28;20515;-63
2022/03/06 06:12:28;;;;;;;104.70;51.17;;;;;;;3.54;79.18;101660.81;5055182;28;20385;-64
2022/03/06 06:14:55;;;;;;;102.57;52.28;;;;;;;3.48;79.11;101659.09;5043109;28;20061;-64
2022/03/06 06:17:22;;;;;;;99.40;51.92;;;;;;;3.66;78.94;101660.78;5049878;28;20057;-62
2022/03/06 06:19:50;;;;;;;108.10;54.05;;;;;;;3.44;79.85;101663.34;5056478;28;20064;-63
2022/03/06 06:22:17;;;;;;;104.95;53.20;;;;;;;3.62;79.21;101663.16;5049494;28;20049;-63
2022/03/06 06:24:44;;;;;;;103.45;51.10;;;;;;;3.60;78.54;101665.31;5054766;28;20067;-62
2022/03/06 06:27:12;;;;;;;109.30;54.17;;;;;;;3.35;79.65;101653.91;5049505;28;20046;-62
2022/03/06 06:29:39;;;;;;;104.05;52.17;;;;;;;3.32;79.74;101663.41;5033932;28;20053;-63
2022/03/06 06:32:07;;;;;;;108.75;53.30;;;;;;;3.11;80.15;101661.34;5043717;28;20053;-63
2022/03/06 06:34:34;;;;;;;105.20;52.90;;;;;;;3.23;80.20;101664.88;5069989;28;20067;-61
2022/03/06 06:37:02;;;;;;;104.68;52.22;;;;;;;3.20;79.90;101667.25;5045477;28;20060;-62
2022/03/06 06:39:30;;;;;;;107.72;54.60;;;;;;;3.23;79.94;101667.59;5035691;28;20427;-62
2022/03/06 06:41:57;;;;;;;106.25;52.83;;;;;;;3.34;79.97;101676.78;5038052;28;20049;-62
2022/03/06 06:44:24;;;;;;;104.60;54.13;;;;;;;3.28;79.58;101681.28;5035114;28;20057;-63
2022/03/06 06:46:52;;;;;;;111.50;54.28;;;;;;;3.04;80.39;101674.28;5048554;28;20076;-63
2022/03/06 06:49:19;;;;;;;108.90;55.40;;;;;;;2.99;80.69;101673.34;5047820;28;20519;-63
2022/03/06 06:51:46;;;;;;;119.68;58.13;;;;;;;3.10;81.06;101676.00;5034871;28;20061;-63
2022/03/06 06:54:15;;;;;;;108.43;54.88;;;;;;;3.22;79.80;101676.84;5037804;28;20065;-63
2022/03/06 06:56:43;;;;;;;113.60;56.38;;;;;;;2.93;80.12;101679.75;5045719;28;20049;-64
2022/03/06 06:59:11;;;;;;;116.00;59.03;;;;;;;2.93;79.89;101687.91;5034114;28;20045;-64
2022/03/06 07:01:38;;;;;;;114.68;59.65;;;;;;;2.67;81.25;101689.22;5039679;28;20056;-63
2022/03/06 07:04:06;;;;;;;114.47;56.38;;;;;;;2.65;81.59;101685.91;5048129;28;20045;-62
2022/03/06 07:06:33;;;;;;;120.70;59.25;;;;;;;2.96;80.85;101687.44;5037962;28;20495;-62
2022/03/06 07:09:00;;;;;;;114.65;56.08;;;;;;;3.15;80.19;101691.63;5041939;28;20046;-63
2022/03/06 07:11:28;;;;;;;113.90;57.28;;;;;;;3.04;80.24;101700.66;5034246;28;20049;-63
2022/03/06 07:13:55;;;;;;;111.43;55.10;;;;;;;3.19;80.25;101698.28;5050879;28;20041;-63
2022/03/06 07:16:23;;;;;;;115.85;55.38;;;;;;;3.09;79.94;101698.03;5036402;28;20071;-62
2022/03/06 07:18:50;;;;;;;108.25;54.28;;;;;;;3.46;79.06;101699.34;5066303;28;20054;-64
2022/03/06 07:21:17;;;;;;;110.20;54.53;;;;;;;3.36;78.24;101704.59;5040832;28;20057;-62
2022/03/06 07:23:44;;;;;;;114.47;57.20;;;;;;;3.43;77.88;101697.91;5033860;28;20049;-62
2022/03/06 07:26:12;;;;;;;108.47;54.50;;;;;;;3.35;77.91;101717.38;5029140;28;20054;-63
2022/03/06 07:28:39;;;;;;;105.40;52.97;;;;;;;3.26;77.51;101721.53;5041438;28;20056;-62
2022/03/06 07:31:06;;;;;;;99.78;52.97;;;;;;;3.27;77.37;101722.38;5037442;28;20064;-62
2022/03/06 07:33:34;;;;;;;107.35;52.42;;;;;;;3.25;77.32;101706.28;5033883;28;20056;-63
2022/03/06 07:36:01;;;;;;;106.28;55.78;;;;;;;3.01;78.10;101731.06;5032483;28;20562;-63
2022/03/06 07:38:29;;;;;;;114.22;55.17;;;;;;;2.74;79.62;101727.19;5034307;28;20049;-63
2022/03/06 07:40:56;;;;;;;112.38;54.58;;;;;;;2.94;78.94;101723.03;5033942;28;20052;-63
2022/03/06 07:43:24;;;;;;;103.72;53.53;;;;;;;3.11;78.95;101737.56;5034642;28;20053;-62
2022/03/06 07:45:51;;;;;;;114.95;57.08;;;;;;;3.12;78.67;101738.41;5032712;28;20505;-62
2022/03/06 07:48:18;;;;;;;104.70;54.03;;;;;;;3.32;77.86;101741.53;5049469;28;20423;-64
2022/03/06 07:50:46;;;;;;;107.13;53.35;;;;;;;3.15;77.69;101746.06;5033783;28;20060;-62
2022/03/06 07:53:13;;;;;;;108.38;54.85;;;;;;;3.09;78.52;101744.31;5034167;28;20524;-62
2022/03/06 07:55:40;;;;;;;111.50;53.97;;;;;;;3.34;76.78;101744.84;5039986;28;20052;-62
2022/03/06 07:58:08;;;;;;;102.10;53.40;;;;;;;3.58;76.16;101745.59;5038816;28;20057;-63
2022/03/06 08:00:35;;;;;;;110.35;53.58;;;;;;;3.29;76.06;101745.59;5048942;28;20064;-62
2022/03/06 08:03:02;;;;;;;99.75;51.17;;;;;;;3.15;77.21;101748.81;5065092;28;20061;-61
2022/03/06 08:05:31;;;;;;;100.30;51.55;;;;;;;3.38;75.99;101759.66;5033902;28;20041;-63
2022/03/06 08:07:58;;;;;;;104.18;53.78;;;;;;;3.66;75.33;101764.28;5034039;28;20507;-64
2022/03/06 08:10:26;;;;;;;107.07;53.63;;;;;;;3.46;74.97;101764.72;5032332;28;20096;-64
2022/03/06 08:12:53;;;;;;;101.28;52.00;;;;;;;3.62;75.08;101763.94;5033671;28;20061;-62
2022/03/06 08:15:21;;;;;;;110.60;53.88;;;;;;;3.11;75.95;101763.94;5036203;28;20053;-62
2022/03/06 08:17:48;;;;;;;105.90;52.38;;;;;;;3.05;76.60;101771.16;5037722;28;20053;-62
2022/03/06 08:20:15;;;;;;;99.68;52.10;;;;;;;2.87;77.37;101765.03;5036250;28;20053;-62
2022/03/06 08:22:43;;;;;;;106.43;53.72;;;;;;;2.91;77.17;101777.13;5037365;28;20037;-62
2022/03/06 08:25:11;;;;;;;97.45;48.20;;;;;;;3.29;75.43;101780.16;5035384;28;20060;-62
2022/03/06 08:27:38;;;;;;;93.10;49.55;;;;;;;3.34;75.27;101783.81;5034617;28;20049;-63
2022/03/06 08:30:07;;;;;;;99.20;49.97;;;;;;;3.13;75.52;101786.31;5034676;28;20057;-64
2022/03/06 08:32:36;;;;;;;97.47;48.80;;;;;;;3.33;74.55;101784.84;5035130;28;20488;-63
2022/03/06 08:35:03;;;;;;;93.05;48.13;;;;;;;3.51;73.75;101789.31;5066731;28;20056;-62
2022/03/06 08:37:31;;;;;;;86.65;45.25;;;;;;;3.69;73.08;101782.88;5040117;28;20045;-63
2022/03/06 08:39:59;;;;;;;92.35;46.88;;;;;;;3.39;73.32;101785.81;5049677;28;20369;-63
2022/03/06 08:42:26;;;;;;;90.68;45.05;;;;;;;3.65;72.51;101787.97;5037549;28;20046;-65
2022/03/06 08:44:53;;;;;;;89.57;46.58;;;;;;;3.71;71.67;101788.91;5036114;28;20132;-64
2022/03/06 08:47:21;;;;;;;93.10;47.90;;;;;;;3.96;72.77;101787.50;5030352;28;20041;-64
2022/03/06 08:49:48;;;;;;;88.85;44.50;;;;;;;4.53;72.75;101786.34;5044412;28;20412;-65
2022/03/06 08:52:15;;;;;;;84.68;44.95;;;;;;;4.70;71.45;101789.09;5035965;28;20045;-65
2022/03/06 08:54:43;;;;;;;83.70;44.40;;;;;;;5.11;70.96;101782.34;5070300;28;20052;-64
2022/03/06 08:57:10;;;;;;;90.28;45.95;;;;;;;5.22;67.97;101781.41;5068279;28;20045;-65
2022/03/06 08:59:38;;;;;;;84.82;44.63;;;;;;;4.78;68.25;101796.03;5031266;28;20060;-63
2022/03/06 09:02:05;;;;;;;85.65;44.63;;;;;;;4.37;69.60;101795.38;5023381;28;20554;-64
2022/03/06 09:04:33;;;;;;;81.70;45.20;;;;;;;4.76;68.74;101788.06;5049973;28;20404;-63
2022/03/06 09:07:01;;;;;;;78.88;43.78;;;;;;;4.58;68.46;101789.16;5034742;28;20053;-63
2022/03/06 09:09:28;;;;;;;76.55;42.85;;;;;;;4.46;68.41;101788.41;5068667;28;20064;-61
2022/03/06 09:11:55;;;;;;;76.75;42.17;;;;;;;4.59;68.24;101793.56;5032308;28;20412;-63
2022/03/06 09:14:23;;;;;;;81.93;43.90;;;;;;;4.92;66.79;101786.41;5033726;28;20049;-59
2022/03/06 09:16:50;;;;;;;75.78;40.90;;;;;;;4.89;67.38;101797.84;5036271;28;20048;-62
2022/03/06 09:19:18;;;;;;;74.10;41.58;;;;;;;5.28;66.42;101785.88;5035959;28;20060;-61
2022/03/06 09:21:46;;;;;;;72.50;38.70;;;;;;;5.31;64.77;101785.34;5034382;28;20064;-61
2022/03/06 09:24:13;;;;;;;73.95;40.70;;;;;;;5.46;64.55;101780.91;5029686;28;20081;-63
2022/03/06 09:26:43;;;;;;;72.22;41.20;;;;;;;5.75;63.34;101782.34;5035839;28;20412;-63
2022/03/06 09:29:10;;;;;;;75.90;40.27;;;;;;;5.61;62.31;101781.09;5036259;28;20504;-63
2022/03/06 09:31:39;;;;;;;75.22;42.53;;;;;;;5.71;62.30;101783.13;5036001;28;20292;-62
2022/03/06 09:34:07;;;;;;;70.93;38.43;;;;;;;5.81;61.48;101782.41;5022698;28;20038;-64
2022/03/06 09:36:49;;;;;;;71.43;38.38;;;;;;;5.17;61.96;101795.81;5031120;28;20060;-63
2022/03/06 09:39:17;;;;;;;69.32;38.15;;;;;;;5.29;62.15;101788.34;5035566;28;20042;-62
2022/03/06 09:41:47;;;;;;;66.45;37.47;;;;;;;5.66;61.88;101794.00;5036214;28;20050;-61
2022/03/06 09:44:15;;;;;;;64.97;37.67;;;;;;;5.53;60.75;101797.09;5042367;28;20045;-63
2022/03/06 09:46:42;;;;;;;66.07;36.30;;;;;;;5.42;61.07;101798.88;5046227;28;20045;-62
2022/03/06 09:49:10;;;;;;;58.78;33.72;;;;;;;5.43;59.96;101802.44;5032581;28;20532;-62
2022/03/06 09:51:40;;;;;;;61.50;34.17;;;;;;;5.40;59.19;101801.06;5036071;28;20060;-63
2022/03/06 09:54:09;;;;;;;59.38;33.45;;;;;;;6.01;60.01;101801.81;5035524;28;20045;-63
2022/03/06 09:56:36;;;;;;;63.92;34.67;;;;;;;6.27;57.05;101806.47;5039525;28;20045;-63
2022/03/06 09:59:04;;;;;;;60.33;33.10;;;;;;;6.34;56.69;101805.19;5043275;28;20049;-63
2022/03/06 10:01:32;;;;;;;57.05;32.03;;;;;;;6.31;55.43;101802.97;5044310;28;20041;-63
2022/03/06 10:04:20;;;;;;;59.63;32.13;;;;;;;6.33;55.64;101808.19;5034385;28;20048;-63
2022/03/06 10:06:59;;;;;;;49.28;30.35;;;;;;;6.22;53.75;101807.28;5030316;28;20491;-65
2022/03/06 10:09:28;;;;;;;49.55;29.65;;;;;;;6.29;52.85;101816.09;5036280;28;20053;-62
2022/03/06 10:11:55;;;;;;;50.67;29.27;;;;;;;6.49;52.83;101807.22;5014497;28;20057;-63
2022/03/06 10:14:33;;;;;;;56.72;29.42;;;;;;;6.67;52.47;101806.84;5038044;28;20050;-64
2022/03/06 10:17:22;;;;;;;44.78;25.98;;;;;;;6.66;52.00;101816.13;5027987;28;20054;-63
2022/03/06 10:19:50;;;;;;;43.88;25.35;;;;;;;6.80;52.35;101806.41;5035241;28;20051;-64
2022/03/06 10:22:19;;;;;;;47.58;26.40;;;;;;;6.92;51.64;101808.97;5034740;28;20500;-65
2022/03/06 10:24:52;;;;;;;43.40;26.02;;;;;;;6.87;49.32;101811.69;5042561;28;20052;-62
2022/03/06 10:27:53;;;;;;;40.95;24.23;;;;;;;6.28;47.31;101803.47;5042748;28;20072;-62
2022/03/06 10:30:26;;;;;;;41.08;24.15;;;;;;;6.19;47.96;101788.63;5034256;28;20377;-62
2022/03/06 10:32:54;;;;;;;41.05;24.20;;;;;;;6.41;48.30;101794.03;5037555;28;20064;-63
2022/03/06 10:35:45;;;;;;;44.03;24.55;;;;;;;6.55;47.07;101801.56;5034341;28;20049;-63
2022/03/06 10:38:27;;;;;;;35.65;22.02;;;;;;;6.35;46.12;101800.53;5049234;28;20045;-63
2022/03/06 10:41:12;;;;;;;36.92;21.42;;;;;;;6.44;45.28;101804.44;5033052;28;20064;-63
2022/03/06 10:43:41;;;;;;;33.45;19.50;;;;;;;6.07;44.28;101818.03;5026726;28;20404;-65
2022/03/06 10:46:12;;;;;;;35.70;19.40;;;;;;;6.07;44.46;101809.81;5032218;28;20061;-65
2022/03/06 10:48:44;;;;;;;32.83;19.30;;;;;;;6.32;44.05;101801.88;5041642;28;20052;-64
2022/03/06 10:51:13;;;;;;;35.25;20.15;;;;;;;6.43;43.70;101800.06;5033646;28;20117;-64
2022/03/06 10:53:40;;;;;;;32.70;19.27;;;;;;;6.73;43.34;101803.06;5034438;28;20584;-64
2022/03/06 10:56:15;;;;;;;33.58;19.85;;;;;;;6.96;43.27;101810.09;5034204;28;20045;-65
2022/03/06 10:58:44;;;;;;;31.88;19.27;;;;;;;6.82;43.00;101815.19;5034496;28;20492;-64
2022/03/06 11:01:28;;;;;;;33.13;19.58;;;;;;;6.70;42.81;101807.16;5035327;28;20057;-63
2022/03/06 11:04:00;;;;;;;31.33;18.67;;;;;;;6.61;42.20;101808.72;5034415;28;20037;-64
2022/03/06 11:06:30;;;;;;;33.58;17.77;;;;;;;6.69;41.75;101807.44;5033653;28;20060;-64
2022/03/06 11:08:57;;;;;;;33.53;18.80;;;;;;;6.73;40.99;101809.38;5029954;28;20064;-64
2022/03/06 11:11:25;;;;;;;32.20;16.25;;;;;;;6.61;40.74;101799.66;5033651;28;20050;-63
2022/03/06 11:13:55;;;;;;;27.40;16.13;;;;;;;6.49;40.91;101812.72;5033080;28;20049;-64
2022/03/06 11:16:23;;;;;;;27.23;15.98;;;;;;;6.54;40.46;101807.28;5033327;28;20053;-65
2022/03/06 11:18:52;;;;;;;26.88;17.23;;;;;;;6.59;40.67;101810.09;5022871;28;20053;-64